You are not logged in, Click here to log in
機場資訊:ZSAM Welcome to Taiwan Airways 台灣虛擬航空
ICAO: ZSAM Country: 中國福建省廈門島東北端
Latitude: 24.5391 Longitude: 118.134
Total Arrivals: 52 Total Departures: 47
Latest Arrival: 9C8837 (ZSSS-ZSAM)Arthur. Kung Latest Departure: JXM63 (ZSAM-RCKH)Arthur. Kung
Scenery:
METAR : ZSAM 170500Z 05002MPS 330V090 CAVOK 27/16 Q1013 NOSIG

廈門高崎國際機場XMN